Santa Rosa de Calamuchita, Argentina
Current Conditions -  °F | °C
As of 3:00 AM on Wednesday 26 Nov 2014 (Local Time) from SACO Reporting Station
Thunderstorm Thunderstorm  
Wind Chill: 59°   Ceiling: 5000
Heat Index: 59°   Visibility: 1.8mi
Dew Point: 59°   Wind: 5mph
Humidity: 100%   Direction: 320°NW
Pressure: 30.03"   Gusts: NA
Location:  32.07°S, 64.55°W
Report Text: SACO 260600Z 32004KT 3000 +TSRA SCT020FEW045CB BKN050 15/15 Q1017
Loading
Personal Weather Stations






























Interactive Weather Map New forecast layout! Learn more

10-Day Weather Forecast

Advertisements
Track Severe Weather on mobile